PWSweather.com
Personal Weather Stations
Station Observations
MARICOPA
Cobblestone Farms, Maricopa, AZ 85139

Cobblestone FarmsMaricopa, AZ 85139

Lat: 33.076, Lon: -112.0445

Elevation: 1148

Station Type: LaCrosse 2310/15

http://weather.azkiwis.net

Latest ConditionsUpdated 12:00:22 PM MST Friday, Nov 28, 2014
Currently Today's Max Today's Min Today's Average
Temperature 74.7°F23.7°C 74.7°F23.7°C 41.9°F5.5°C 50.3°F10.2°C
Dew Point 34.4°F1.3°C 36.4°F2.4°C 25.5°F-3.6°C 29.4°F-1.4°C
Winds 0.1 mph NE0.2 kmh NE 4.3 mph E6.9 kmh E - 0.6 mph 1.0 kmh
Wind Gusts 2.7 mph4.3 kmh 5.4 mph8.7 kmh - -
Humidity 23% 54% 23% 45%
Pressure 30.00 in1015.9 mb 30.07 in1018.3 mb 30.00 in1015.9 mb -
Hour Temp Dew Point Humidity Winds Wind Gusts Pressure Precip Precip Rate Daily Precip Total
12:00 PM 74.7°F23.7°C 34.4°F1.3°C 23% 0.1 mph NE0.2 kmh NE 2.7 mph4.3 kmh 30.00 in1015.9 mb 0.00 in0.0 mm 0.00 in/hr0.0 mm/hr 0.00 in0.0 mm
11:45 AM 73.0°F22.8°C 36.1°F2.3°C 26% 1.7 mph ENE2.7 kmh ENE 5.4 mph8.7 kmh 30.01 in1016.3 mb 0.00 in0.0 mm 0.00 in/hr0.0 mm/hr 0.00 in0.0 mm
11:30 AM 71.2°F21.8°C 36.4°F2.4°C 28% 4.3 mph E6.9 kmh E 5.1 mph8.2 kmh 30.02 in1016.6 mb 0.00 in0.0 mm 0.00 in/hr0.0 mm/hr 0.00 in0.0 mm
11:15 AM 69.0°F20.6°C 35.4°F1.9°C 29% 0.6 mph E1.0 kmh E 1.8 mph2.9 kmh 30.03 in1016.9 mb 0.00 in0.0 mm 0.00 in/hr0.0 mm/hr 0.00 in0.0 mm
11:00 AM 67.4°F19.7°C 35.7°F2.1°C 31% Calm Calm -- 30.04 in1017.3 mb 0.00 in0.0 mm 0.00 in/hr0.0 mm/hr 0.00 in0.0 mm
10:45 AM 65.7°F18.7°C 35.0°F1.7°C 32% Calm Calm -- 30.05 in1017.6 mb 0.00 in0.0 mm 0.00 in/hr0.0 mm/hr 0.00 in0.0 mm
10:30 AM 63.8°F17.7°C 34.9°F1.6°C 34% Calm Calm -- 30.06 in1017.9 mb 0.00 in0.0 mm 0.00 in/hr0.0 mm/hr 0.00 in0.0 mm
10:15 AM 61.4°F16.3°C 34.2°F1.2°C 36% 1.3 mph SSW2.1 kmh SSW 2.2 mph3.5 kmh 30.06 in1017.9 mb 0.00 in0.0 mm 0.00 in/hr0.0 mm/hr 0.00 in0.0 mm
10:00 AM 59.0°F15.0°C 33.4°F0.8°C 38% Calm Calm -- 30.07 in1018.3 mb 0.00 in0.0 mm 0.00 in/hr0.0 mm/hr 0.00 in0.0 mm
09:45 AM 56.1°F13.4°C 33.3°F0.7°C 42% 1.2 mph SW1.9 kmh SW 3.4 mph5.5 kmh 30.06 in1017.9 mb 0.00 in0.0 mm 0.00 in/hr0.0 mm/hr 0.00 in0.0 mm
09:30 AM 53.1°F11.7°C 32.3°F0.2°C 45% 0.2 mph SSE0.3 kmh SSE -- 30.06 in1017.9 mb 0.00 in0.0 mm 0.00 in/hr0.0 mm/hr 0.00 in0.0 mm
09:15 AM 50.6°F10.3°C 31.1°F-0.5°C 47% 0.2 mph SSE0.3 kmh SSE 2.0 mph3.2 kmh 30.06 in1017.9 mb 0.00 in0.0 mm 0.00 in/hr0.0 mm/hr 0.00 in0.0 mm
09:00 AM 48.4°F9.1°C 30.1°F-1.1°C 49% Calm Calm -- 30.06 in1017.9 mb 0.00 in0.0 mm 0.00 in/hr0.0 mm/hr 0.00 in0.0 mm
08:45 AM 46.4°F8.0°C 29.3°F-1.5°C 51% Calm Calm 1.6 mph2.6 kmh 30.06 in1017.9 mb 0.00 in0.0 mm 0.00 in/hr0.0 mm/hr 0.00 in0.0 mm
08:30 AM 44.6°F7.0°C 28.5°F-1.9°C 53% 0.9 mph S1.4 kmh S 4.5 mph7.2 kmh 30.06 in1017.9 mb 0.00 in0.0 mm 0.00 in/hr0.0 mm/hr 0.00 in0.0 mm
08:15 AM 43.3°F6.3°C 27.8°F-2.3°C 54% 1.5 mph S2.4 kmh S 3.1 mph5.0 kmh 30.06 in1017.9 mb 0.00 in0.0 mm 0.00 in/hr0.0 mm/hr 0.00 in0.0 mm
08:00 AM 42.6°F5.9°C 26.7°F-2.9°C 53% 0.2 mph S0.3 kmh S 1.8 mph2.9 kmh 30.06 in1017.9 mb 0.00 in0.0 mm 0.00 in/hr0.0 mm/hr 0.00 in0.0 mm
07:45 AM 42.3°F5.7°C 26.4°F-3.1°C 53% Calm Calm -- 30.06 in1017.9 mb 0.00 in0.0 mm 0.00 in/hr0.0 mm/hr 0.00 in0.0 mm
07:30 AM 41.9°F5.5°C 26.0°F-3.3°C 53% 2.7 mph S4.3 kmh S 4.2 mph6.8 kmh 30.06 in1017.9 mb 0.00 in0.0 mm 0.00 in/hr0.0 mm/hr 0.00 in0.0 mm
07:15 AM 41.9°F5.5°C 25.5°F-3.6°C 52% 0.6 mph SE1.0 kmh SE 2.9 mph4.7 kmh 30.05 in1017.6 mb 0.00 in0.0 mm 0.00 in/hr0.0 mm/hr 0.00 in0.0 mm
07:00 AM 42.4°F5.8°C 26.0°F-3.3°C 52% 1.7 mph ESE2.7 kmh ESE 2.7 mph4.3 kmh 30.05 in1017.6 mb 0.00 in0.0 mm 0.00 in/hr0.0 mm/hr 0.00 in0.0 mm
06:45 AM 42.8°F6.0°C 26.4°F-3.1°C 52% Calm Calm -- 30.05 in1017.6 mb 0.00 in0.0 mm 0.00 in/hr0.0 mm/hr 0.00 in0.0 mm
06:30 AM 43.3°F6.3°C 26.3°F-3.2°C 51% Calm Calm -- 30.05 in1017.6 mb 0.00 in0.0 mm 0.00 in/hr0.0 mm/hr 0.00 in0.0 mm
06:15 AM 43.3°F6.3°C 26.9°F-2.8°C 52% 0.1 mph NE0.2 kmh NE -- 30.05 in1017.6 mb 0.00 in0.0 mm 0.00 in/hr0.0 mm/hr 0.00 in0.0 mm
06:00 AM 43.7°F6.5°C 26.3°F-3.2°C 50% Calm Calm -- 30.04 in1017.3 mb 0.00 in0.0 mm 0.00 in/hr0.0 mm/hr 0.00 in0.0 mm
05:45 AM 44.1°F6.7°C 26.6°F-3.0°C 50% 1.6 mph E2.6 kmh E 2.2 mph3.5 kmh 30.04 in1017.3 mb 0.00 in0.0 mm 0.00 in/hr0.0 mm/hr 0.00 in0.0 mm
05:30 AM 44.1°F6.7°C 26.6°F-3.0°C 50% 1.7 mph SSE2.7 kmh SSE 2.9 mph4.7 kmh 30.04 in1017.3 mb 0.00 in0.0 mm 0.00 in/hr0.0 mm/hr 0.00 in0.0 mm
05:15 AM 44.4°F6.9°C 26.4°F-3.1°C 49% 2.4 mph SSE3.9 kmh SSE 2.9 mph4.7 kmh 30.04 in1017.3 mb 0.00 in0.0 mm 0.00 in/hr0.0 mm/hr 0.00 in0.0 mm
05:00 AM 45.0°F7.2°C 26.4°F-3.1°C 48% 1.3 mph SSE2.1 kmh SSE 2.0 mph3.2 kmh 30.04 in1017.3 mb 0.00 in0.0 mm 0.00 in/hr0.0 mm/hr 0.00 in0.0 mm
04:45 AM 45.5°F7.5°C 26.4°F-3.1°C 47% 0.5 mph SSE0.8 kmh SSE 2.5 mph4.0 kmh 30.04 in1017.3 mb 0.00 in0.0 mm 0.00 in/hr0.0 mm/hr 0.00 in0.0 mm
04:30 AM 46.0°F7.8°C 26.9°F-2.8°C 47% Calm Calm -- 30.04 in1017.3 mb 0.00 in0.0 mm 0.00 in/hr0.0 mm/hr 0.00 in0.0 mm
04:15 AM 46.2°F7.9°C 27.1°F-2.7°C 47% 1.0 mph SSW1.6 kmh SSW 3.1 mph5.0 kmh 30.04 in1017.3 mb 0.00 in0.0 mm 0.00 in/hr0.0 mm/hr 0.00 in0.0 mm
04:00 AM 46.2°F7.9°C 27.5°F-2.5°C 48% 0.3 mph SSW0.5 kmh SSW -- 30.05 in1017.6 mb 0.00 in0.0 mm 0.00 in/hr0.0 mm/hr 0.00 in0.0 mm
03:45 AM 46.0°F7.8°C 27.4°F-2.6°C 48% 0.3 mph SSE0.5 kmh SSE 2.0 mph3.2 kmh 30.05 in1017.6 mb 0.00 in0.0 mm 0.00 in/hr0.0 mm/hr 0.00 in0.0 mm
03:30 AM 46.4°F8.0°C 27.8°F-2.3°C 48% Calm Calm -- 30.05 in1017.6 mb 0.00 in0.0 mm 0.00 in/hr0.0 mm/hr 0.00 in0.0 mm
03:15 AM 46.4°F8.0°C 27.8°F-2.3°C 48% Calm Calm -- 30.05 in1017.6 mb 0.00 in0.0 mm 0.00 in/hr0.0 mm/hr 0.00 in0.0 mm
03:00 AM 46.2°F7.9°C 28.1°F-2.2°C 49% Calm Calm -- 30.05 in1017.6 mb 0.00 in0.0 mm 0.00 in/hr0.0 mm/hr 0.00 in0.0 mm
02:45 AM 46.4°F8.0°C 28.3°F-2.1°C 49% Calm Calm -- 30.06 in1017.9 mb 0.00 in0.0 mm 0.00 in/hr0.0 mm/hr 0.00 in0.0 mm
02:30 AM 46.8°F8.2°C 28.6°F-1.9°C 49% Calm Calm -- 30.06 in1017.9 mb 0.00 in0.0 mm 0.00 in/hr0.0 mm/hr 0.00 in0.0 mm
02:15 AM 46.9°F8.3°C 28.8°F-1.8°C 49% Calm Calm -- 30.06 in1017.9 mb 0.00 in0.0 mm 0.00 in/hr0.0 mm/hr 0.00 in0.0 mm
02:00 AM 47.5°F8.6°C 28.8°F-1.8°C 48% Calm Calm -- 30.06 in1017.9 mb 0.00 in0.0 mm 0.00 in/hr0.0 mm/hr 0.00 in0.0 mm
01:45 AM 47.8°F8.8°C 29.1°F-1.6°C 48% Calm Calm -- 30.06 in1017.9 mb 0.00 in0.0 mm 0.00 in/hr0.0 mm/hr 0.00 in0.0 mm
01:30 AM 48.5°F9.2°C 29.2°F-1.6°C 47% Calm Calm -- 30.06 in1017.9 mb 0.00 in0.0 mm 0.00 in/hr0.0 mm/hr 0.00 in0.0 mm
01:15 AM 49.1°F9.5°C 29.2°F-1.6°C 46% Calm Calm -- 30.05 in1017.6 mb 0.00 in0.0 mm 0.00 in/hr0.0 mm/hr 0.00 in0.0 mm
01:00 AM 49.6°F9.8°C 29.1°F-1.6°C 45% Calm Calm -- 30.06 in1017.9 mb 0.00 in0.0 mm 0.00 in/hr0.0 mm/hr 0.00 in0.0 mm
12:45 AM 50.4°F10.2°C 29.8°F-1.2°C 45% Calm Calm -- 30.06 in1017.9 mb 0.00 in0.0 mm 0.00 in/hr0.0 mm/hr 0.00 in0.0 mm
12:30 AM 50.9°F10.5°C 29.7°F-1.3°C 44% Calm Calm -- 30.06 in1017.9 mb 0.00 in0.0 mm 0.00 in/hr0.0 mm/hr 0.00 in0.0 mm
12:15 AM 51.3°F10.7°C 30.1°F-1.1°C 44% Calm Calm -- 30.05 in1017.6 mb 0.00 in0.0 mm 0.00 in/hr0.0 mm/hr 0.00 in0.0 mm
12:00 AM 50.7°F10.4°C 29.6°F-1.3°C 44% 1.8 mph NNE2.9 kmh NNE 2.9 mph4.7 kmh 30.05 in1017.6 mb 0.00 in0.0 mm 0.00 in/hr0.0 mm/hr 0.00 in0.0 mm